Alamogordo, NM

1:31 AM MST on November 21, 2019 (GMT -0700)
Alamogordo-White Sands Regional

Weather History for KALM - October, 2019

Change the Weather History Date:

Monday, October 21, 2019

  Actual Average Record
Temperature  
Mean Temperature 56 °F -  
Max Temperature 69 °F 73 °F 87 °F (2003)
Min Temperature 42 °F 46 °F 31 °F (1953)
Degree Days  
Heating Degree Days 10    
Growing Degree Days 6 (Base 50)    
Moisture  
Dew Point 12 °F    
Average Humidity 18    
Maximum Humidity 28    
Minimum Humidity 10    
Precipitation  
Precipitation 0.00 in - - ()
Sea Level Pressure  
Sea Level Pressure 30.08 in    
Wind  
Wind Speed 10 mph ()    
Max Wind Speed 18 mph    
Max Gust Speed 25 mph    
Visibility 10.0 miles    
Events      
Averages and records for this station are not official NWS values.
T = Trace of Precipitation, MM = Missing Value Source: Averaged Metar Reports

Daily Weather History Graph

Daily Weather History Graph

Search for Another Location

Airport or City:

Astronomy

Oct. 21, 2019 Rise Set
Actual Time 7:12 AM MDT 6:24 PM MDT
Civil Twilight 6:47 AM MDT 6:49 PM MDT
Nautical Twilight 6:18 AM MDT 7:17 PM MDT
Astronomical Twilight 5:50 AM MDT 7:46 PM MDT
Moon No Moon Rise 2:21 PM MDT
Length of Visible Light 12h 01m
Length of Day
11h 11m
Waning Gibbous, 47% of the Moon is Illuminated
Oct 21
Waning Gibbous
Oct 27
New
Nov 4
First Quarter
Nov 12
Full
Nov 19
Last Quarter

Hourly Weather History & Observations

Time (MDT) Temp. Windchill Dew Point Humidity Pressure Visibility Wind Dir Wind Speed Gust Speed Precip Events Conditions
12:15 AM 53.6 °F - 14.0 °F 21% 30.01 in 10.0 mi NW 12.7 mph - N/A   Clear
12:35 AM 50.0 °F - 14.0 °F 24% 30.01 in 10.0 mi NW 11.5 mph - N/A   Clear
12:55 AM 50.0 °F - 14.0 °F 24% 30.01 in 10.0 mi NW 12.7 mph - N/A   Clear
1:15 AM 48.2 °F - 14.0 °F 25% 30.01 in 10.0 mi North 11.5 mph - N/A   Clear
1:35 AM 48.2 °F - 14.0 °F 25% 30.01 in 10.0 mi North 13.8 mph - N/A   Clear
1:55 AM 48.2 °F - 14.0 °F 25% 30.02 in 10.0 mi North 10.4 mph - N/A   Clear
2:15 AM 46.4 °F 40.7 °F 14.0 °F 27% 30.02 in 10.0 mi North 12.7 mph - N/A   Clear
2:35 AM 50.0 °F - 10.4 °F 20% 30.02 in 10.0 mi North 15.0 mph - N/A   Clear
2:55 AM 50.0 °F - 8.6 °F 19% 30.02 in 10.0 mi North 13.8 mph - N/A   Clear
3:15 AM 50.0 °F - 8.6 °F 19% 30.01 in 10.0 mi North 11.5 mph 16.1 mph N/A   Clear
3:35 AM 50.0 °F - 8.6 °F 19% 30.02 in 10.0 mi NNW 12.7 mph - N/A   Clear
3:55 AM 48.2 °F - 8.6 °F 20% 30.02 in 10.0 mi North 9.2 mph - N/A   Clear
4:15 AM 46.4 °F 41.5 °F 8.6 °F 22% 30.03 in 10.0 mi NNW 10.4 mph - N/A   Clear
4:35 AM 48.2 °F - 8.6 °F 20% 30.03 in 10.0 mi North 12.7 mph - N/A   Clear
4:55 AM 46.4 °F 41.1 °F 10.4 °F 23% 30.03 in 10.0 mi North 11.5 mph - N/A   Clear
5:15 AM 44.6 °F 38.8 °F 10.4 °F 25% 30.04 in 10.0 mi North 11.5 mph - N/A   Clear
5:35 AM 46.4 °F 41.5 °F 6.8 °F 20% 30.04 in 10.0 mi NNW 10.4 mph - N/A   Clear
5:55 AM 44.6 °F 39.2 °F 10.4 °F 25% 30.04 in 10.0 mi North 10.4 mph - N/A   Clear
6:15 AM 44.6 °F 39.7 °F 10.4 °F 25% 30.05 in 10.0 mi North 9.2 mph - N/A   Clear
6:35 AM 42.8 °F 37.5 °F 10.4 °F 27% 30.05 in 10.0 mi North 9.2 mph - N/A   Clear
6:55 AM 44.6 °F 39.2 °F 8.6 °F 23% 30.06 in 10.0 mi NNW 10.4 mph - N/A   Clear
7:15 AM 44.6 °F 39.2 °F 8.6 °F 23% 30.07 in 10.0 mi North 10.4 mph - N/A   Clear
7:35 AM 42.8 °F 38.0 °F 8.6 °F 25% 30.08 in 10.0 mi North 8.1 mph - N/A   Clear
7:55 AM 42.8 °F 38.6 °F 10.4 °F 27% 30.08 in 10.0 mi North 6.9 mph - N/A   Clear
8:15 AM 48.2 °F - 8.6 °F 20% 30.10 in 10.0 mi NNW 11.5 mph - N/A   Clear
8:35 AM 50.0 °F - 10.4 °F 20% 30.11 in 10.0 mi North 9.2 mph - N/A   Clear
8:55 AM 53.6 °F - 8.6 °F 16% 30.11 in 10.0 mi NNW 9.2 mph - N/A   Clear
9:15 AM 55.4 °F - 10.4 °F 17% 30.13 in 10.0 mi NNW 8.1 mph - N/A   Clear
9:35 AM 59.0 °F - 10.4 °F 15% 30.14 in 10.0 mi North 13.8 mph - N/A   Clear
9:55 AM 62.6 °F - 6.8 °F 11% 30.13 in 10.0 mi North 18.4 mph 24.2 mph N/A   Clear
10:15 AM 62.6 °F - 6.8 °F 11% 30.12 in 10.0 mi North 17.3 mph 21.9 mph N/A   Clear
10:35 AM 62.6 °F - 6.8 °F 11% 30.13 in 10.0 mi North 16.1 mph 23.0 mph N/A   Clear
10:55 AM 64.4 °F - 8.6 °F 11% 30.12 in 10.0 mi North 16.1 mph 23.0 mph N/A   Clear
11:15 AM 64.4 °F - 8.6 °F 11% 30.12 in 10.0 mi North 18.4 mph - N/A   Clear
11:35 AM 64.4 °F - 8.6 °F 11% 30.12 in 10.0 mi North 17.3 mph 25.3 mph N/A   Clear
11:55 AM 66.2 °F - 8.6 °F 11% 30.12 in 10.0 mi NNW 13.8 mph 20.7 mph N/A   Clear
12:15 PM 66.2 °F - 8.6 °F 11% 30.11 in 10.0 mi NNW 15.0 mph 18.4 mph N/A   Clear
12:35 PM 66.2 °F - 8.6 °F 11% 30.11 in 10.0 mi NNW 11.5 mph 20.7 mph N/A   Clear
12:55 PM 66.2 °F - 10.4 °F 11% 30.10 in 10.0 mi NNE 11.5 mph 16.1 mph N/A   Clear
1:15 PM 68.0 °F - 10.4 °F 11% 30.10 in 10.0 mi North 10.4 mph 17.3 mph N/A   Clear
1:55 PM 68.0 °F - 10.4 °F 11% 30.08 in 10.0 mi North 12.7 mph 20.7 mph N/A   Clear
2:15 PM 68.0 °F - 12.2 °F 12% 30.07 in 10.0 mi NW 10.4 mph - N/A   Clear
2:35 PM 68.0 °F - 12.2 °F 12% 30.07 in 10.0 mi NNW 10.4 mph - N/A   Clear
2:55 PM 68.0 °F - 12.2 °F 12% 30.06 in 10.0 mi NNE 6.9 mph - N/A   Clear
3:15 PM 68.0 °F - 12.2 °F 12% 30.05 in 10.0 mi NNW 5.8 mph - N/A   Clear
3:35 PM 68.0 °F - 10.4 °F 11% 30.05 in 10.0 mi WNW 4.6 mph - N/A   Clear
3:55 PM 69.8 °F - 10.4 °F 10% 30.05 in 10.0 mi SW 3.5 mph - N/A   Clear
4:15 PM 69.8 °F - 10.4 °F 10% 30.06 in 10.0 mi NNW 4.6 mph - N/A   Clear
4:35 PM 69.8 °F - 10.4 °F 10% 30.05 in 10.0 mi West 3.5 mph - N/A   Clear
4:55 PM 69.8 °F - 10.4 °F 10% 30.06 in 10.0 mi NW 4.6 mph - N/A   Clear
5:15 PM 69.8 °F - 10.4 °F 10% 30.06 in 10.0 mi Calm Calm - N/A   Clear
5:55 PM 68.0 °F - 10.4 °F 11% 30.06 in 10.0 mi NNW 3.5 mph - N/A   Clear
6:15 PM 68.0 °F - 14.0 °F 12% 30.06 in 10.0 mi Calm Calm - N/A   Clear
6:35 PM 64.4 °F - 12.2 °F 13% 30.06 in 10.0 mi Calm Calm - N/A   Clear
6:55 PM 62.6 °F - 15.8 °F 16% 30.07 in 10.0 mi Calm Calm - N/A   Clear
7:55 PM 55.4 °F - 15.8 °F 21% 30.10 in 10.0 mi ENE 5.8 mph - N/A   Clear
8:15 PM 57.2 °F - 15.8 °F 20% 30.11 in 10.0 mi ENE 9.2 mph - N/A   Clear
8:35 PM 55.4 °F - 15.8 °F 21% 30.11 in 10.0 mi ENE 9.2 mph - N/A   Clear
8:55 PM 55.4 °F - 15.8 °F 21% 30.11 in 10.0 mi ENE 9.2 mph - N/A   Clear
9:15 PM 55.4 °F - 15.8 °F 21% 30.12 in 10.0 mi ENE 10.4 mph - N/A   Clear
9:35 PM 55.4 °F - 19.4 °F 25% 30.13 in 10.0 mi South 4.6 mph - N/A   Clear
9:55 PM 55.4 °F - 15.8 °F 21% 30.14 in 10.0 mi Calm Calm - N/A   Clear
10:15 PM 53.6 °F - 15.8 °F 22% 30.15 in 10.0 mi NNE 3.5 mph - N/A   Clear
10:35 PM 53.6 °F - 17.6 °F 24% 30.16 in 10.0 mi NNE 4.6 mph - N/A   Clear
10:55 PM 55.4 °F - 17.6 °F 23% 30.17 in 10.0 mi NNW 8.1 mph - N/A   Clear
11:15 PM 50.0 °F - 17.6 °F 28% 30.19 in 10.0 mi NNW 10.4 mph - N/A   Clear
11:35 PM 50.0 °F - 17.6 °F 28% 30.19 in 10.0 mi NNE 10.4 mph - N/A   Clear
11:55 PM 51.8 °F - 15.8 °F 24% 30.20 in 10.0 mi NE 10.4 mph - N/A   Clear